sensor_id;sensor_type;location;lat;lon;timestamp;temperature;humidity
64032;DHT22;50278;47.796;11.968;2022-07-29T00:00:09;18.08;118.99
64032;DHT22;50278;47.796;11.968;2022-07-29T00:02:35;18.29;118.99
64032;DHT22;50278;47.796;11.968;2022-07-29T00:05:01;17.92;118.99
64032;DHT22;50278;47.796;11.968;2022-07-29T00:07:27;17.88;118.99
64032;DHT22;50278;47.796;11.968;2022-07-29T00:09:52;18.04;118.99
64032;DHT22;50278;47.796;11.968;2022-07-29T00:12:23;17.64;118.99
64032;DHT22;50278;47.796;11.968;2022-07-29T00:14:49;17.48;118.99
64032;DHT22;50278;47.796;11.968;2022-07-29T00:17:14;17.59;118.99
64032;DHT22;50278;47.796;11.968;2022-07-29T00:19:40;17.66;118.99
64032;DHT22;50278;47.796;11.968;2022-07-29T00:22:05;17.92;118.99
64032;DHT22;50278;47.796;11.968;2022-07-29T00:24:31;17.95;118.99
64032;DHT22;50278;47.796;11.968;2022-07-29T00:26:56;17.40;118.99
64032;DHT22;50278;47.796;11.968;2022-07-29T00:29:22;17.13;118.99
64032;DHT22;50278;47.796;11.968;2022-07-29T00:31:47;17.22;118.99
64032;DHT22;50278;47.796;11.968;2022-07-29T00:34:12;16.96;118.99
64032;DHT22;50278;47.796;11.968;2022-07-29T00:36:57;16.89;118.99
64032;DHT22;50278;47.796;11.968;2022-07-29T00:39:23;16.73;118.99
64032;DHT22;50278;47.796;11.968;2022-07-29T00:41:49;16.76;118.99
64032;DHT22;50278;47.796;11.968;2022-07-29T00:44:15;16.90;118.99
64032;DHT22;50278;47.796;11.968;2022-07-29T00:46:40;16.85;118.99
64032;DHT22;50278;47.796;11.968;2022-07-29T00:49:06;16.89;118.99
64032;DHT22;50278;47.796;11.968;2022-07-29T00:51:35;16.87;118.99
64032;DHT22;50278;47.796;11.968;2022-07-29T00:54:02;16.93;118.99
64032;DHT22;50278;47.796;11.968;2022-07-29T00:56:30;16.74;118.99
64032;DHT22;50278;47.796;11.968;2022-07-29T00:58:56;16.95;118.99
64032;DHT22;50278;47.796;11.968;2022-07-29T01:01:22;17.10;118.99
64032;DHT22;50278;47.796;11.968;2022-07-29T01:03:48;17.09;118.99
64032;DHT22;50278;47.796;11.968;2022-07-29T01:06:15;17.06;118.99
64032;DHT22;50278;47.796;11.968;2022-07-29T01:08:41;17.05;118.99
64032;DHT22;50278;47.796;11.968;2022-07-29T01:11:06;17.03;118.99
64032;DHT22;50278;47.796;11.968;2022-07-29T01:13:32;17.05;118.99
64032;DHT22;50278;47.796;11.968;2022-07-29T01:16:10;17.07;118.99
64032;DHT22;50278;47.796;11.968;2022-07-29T01:18:42;17.04;118.99
64032;DHT22;50278;47.796;11.968;2022-07-29T01:23:59;17.45;118.99
64032;DHT22;50278;47.796;11.968;2022-07-29T01:29:28;17.43;118.99
64032;DHT22;50278;47.796;11.968;2022-07-29T01:32:04;17.15;118.99
64032;DHT22;50278;47.796;11.968;2022-07-29T01:37:18;17.26;118.99
64032;DHT22;50278;47.796;11.968;2022-07-29T01:39:47;17.53;118.99
64032;DHT22;50278;47.796;11.968;2022-07-29T01:45:37;18.05;118.99
64032;DHT22;50278;47.796;11.968;2022-07-29T01:48:43;18.05;118.99
64032;DHT22;50278;47.796;11.968;2022-07-29T01:50:48;17.68;118.99
64032;DHT22;50278;47.796;11.968;2022-07-29T01:53:23;17.63;118.99
64032;DHT22;50278;47.796;11.968;2022-07-29T01:55:51;17.61;118.99
64032;DHT22;50278;47.796;11.968;2022-07-29T01:58:19;17.26;118.99
64032;DHT22;50278;47.796;11.968;2022-07-29T02:00:45;17.25;118.99
64032;DHT22;50278;47.796;11.968;2022-07-29T02:03:13;17.35;118.99
64032;DHT22;50278;47.796;11.968;2022-07-29T02:05:42;17.45;118.99
64032;DHT22;50278;47.796;11.968;2022-07-29T02:08:10;17.32;118.99
64032;DHT22;50278;47.796;11.968;2022-07-29T02:10:38;17.07;118.99
64032;DHT22;50278;47.796;11.968;2022-07-29T02:13:05;16.70;118.99
64032;DHT22;50278;47.796;11.968;2022-07-29T02:15:33;16.62;118.99
64032;DHT22;50278;47.796;11.968;2022-07-29T02:18:07;16.44;118.99
64032;DHT22;50278;47.796;11.968;2022-07-29T02:20:35;16.54;118.99
64032;DHT22;50278;47.796;11.968;2022-07-29T02:23:02;16.59;118.99
64032;DHT22;50278;47.796;11.968;2022-07-29T02:25:28;16.43;118.99
64032;DHT22;50278;47.796;11.968;2022-07-29T02:27:55;16.57;118.99
64032;DHT22;50278;47.796;11.968;2022-07-29T02:30:22;16.82;118.99
64032;DHT22;50278;47.796;11.968;2022-07-29T02:32:49;16.86;118.99
64032;DHT22;50278;47.796;11.968;2022-07-29T02:35:15;16.55;118.99
64032;DHT22;50278;47.796;11.968;2022-07-29T02:37:43;16.27;118.99
64032;DHT22;50278;47.796;11.968;2022-07-29T02:40:13;16.06;118.99
64032;DHT22;50278;47.796;11.968;2022-07-29T02:42:42;16.10;118.99
64032;DHT22;50278;47.796;11.968;2022-07-29T02:45:10;15.62;118.99
64032;DHT22;50278;47.796;11.968;2022-07-29T02:47:43;15.68;118.99
64032;DHT22;50278;47.796;11.968;2022-07-29T02:50:15;15.88;118.99
64032;DHT22;50278;47.796;11.968;2022-07-29T02:52:45;16.06;118.99
64032;DHT22;50278;47.796;11.968;2022-07-29T02:55:32;15.87;118.99
64032;DHT22;50278;47.796;11.968;2022-07-29T02:58:02;16.51;118.99
64032;DHT22;50278;47.796;11.968;2022-07-29T03:00:30;16.20;118.99
64032;DHT22;50278;47.796;11.968;2022-07-29T03:02:58;16.12;118.99
64032;DHT22;50278;47.796;11.968;2022-07-29T03:05:24;15.80;118.99
64032;DHT22;50278;47.796;11.968;2022-07-29T03:07:54;16.11;118.99
64032;DHT22;50278;47.796;11.968;2022-07-29T03:10:21;16.04;118.99
64032;DHT22;50278;47.796;11.968;2022-07-29T03:12:47;15.72;118.99
64032;DHT22;50278;47.796;11.968;2022-07-29T03:15:13;15.51;118.99
64032;DHT22;50278;47.796;11.968;2022-07-29T03:17:39;15.77;118.99
64032;DHT22;50278;47.796;11.968;2022-07-29T03:20:07;15.51;118.99
64032;DHT22;50278;47.796;11.968;2022-07-29T03:22:36;15.48;118.99
64032;DHT22;50278;47.796;11.968;2022-07-29T03:25:10;15.47;118.99
64032;DHT22;50278;47.796;11.968;2022-07-29T03:27:36;15.39;118.99
64032;DHT22;50278;47.796;11.968;2022-07-29T03:30:03;15.30;118.99
64032;DHT22;50278;47.796;11.968;2022-07-29T03:32:28;15.17;118.99
64032;DHT22;50278;47.796;11.968;2022-07-29T03:34:54;15.07;118.99
64032;DHT22;50278;47.796;11.968;2022-07-29T03:37:19;14.96;118.99
64032;DHT22;50278;47.796;11.968;2022-07-29T03:39:45;14.92;118.99
64032;DHT22;50278;47.796;11.968;2022-07-29T03:42:15;14.84;118.99
64032;DHT22;50278;47.796;11.968;2022-07-29T03:44:43;15.01;118.99
64032;DHT22;50278;47.796;11.968;2022-07-29T03:47:10;15.28;118.99
64032;DHT22;50278;47.796;11.968;2022-07-29T03:49:40;15.43;118.99
64032;DHT22;50278;47.796;11.968;2022-07-29T03:52:06;15.30;118.99
64032;DHT22;50278;47.796;11.968;2022-07-29T03:54:32;15.48;118.99
64032;DHT22;50278;47.796;11.968;2022-07-29T03:56:59;15.88;118.99
64032;DHT22;50278;47.796;11.968;2022-07-29T03:59:27;15.45;118.99
64032;DHT22;50278;47.796;11.968;2022-07-29T04:01:53;15.22;118.99
64032;DHT22;50278;47.796;11.968;2022-07-29T04:04:21;14.87;118.99
64032;DHT22;50278;47.796;11.968;2022-07-29T04:06:46;14.79;118.99
64032;DHT22;50278;47.796;11.968;2022-07-29T04:09:12;14.67;118.99
64032;DHT22;50278;47.796;11.968;2022-07-29T04:11:39;14.68;118.99
64032;DHT22;50278;47.796;11.968;2022-07-29T04:14:05;14.87;118.99
64032;DHT22;50278;47.796;11.968;2022-07-29T04:16:31;15.22;118.99
64032;DHT22;50278;47.796;11.968;2022-07-29T04:18:56;15.07;118.99
64032;DHT22;50278;47.796;11.968;2022-07-29T04:21:22;15.37;118.99
64032;DHT22;50278;47.796;11.968;2022-07-29T04:23:47;15.11;118.99
64032;DHT22;50278;47.796;11.968;2022-07-29T04:26:19;15.06;118.99
64032;DHT22;50278;47.796;11.968;2022-07-29T04:28:45;15.00;118.99
64032;DHT22;50278;47.796;11.968;2022-07-29T04:31:12;14.97;118.99
64032;DHT22;50278;47.796;11.968;2022-07-29T04:33:38;14.84;118.99
64032;DHT22;50278;47.796;11.968;2022-07-29T04:36:04;14.87;118.99
64032;DHT22;50278;47.796;11.968;2022-07-29T04:38:30;14.95;118.99
64032;DHT22;50278;47.796;11.968;2022-07-29T04:40:55;15.13;118.99
64032;DHT22;50278;47.796;11.968;2022-07-29T04:43:21;15.14;118.99
64032;DHT22;50278;47.796;11.968;2022-07-29T04:45:46;15.09;118.99
64032;DHT22;50278;47.796;11.968;2022-07-29T04:48:12;15.01;118.99
64032;DHT22;50278;47.796;11.968;2022-07-29T04:50:39;15.03;118.99
64032;DHT22;50278;47.796;11.968;2022-07-29T04:53:05;15.26;118.99
64032;DHT22;50278;47.796;11.968;2022-07-29T04:55:30;15.52;118.99
64032;DHT22;50278;47.796;11.968;2022-07-29T04:58:05;15.60;118.99
64032;DHT22;50278;47.796;11.968;2022-07-29T05:00:38;15.90;118.99
64032;DHT22;50278;47.796;11.968;2022-07-29T05:03:04;16.03;118.99
64032;DHT22;50278;47.796;11.968;2022-07-29T05:05:29;16.02;118.99
64032;DHT22;50278;47.796;11.968;2022-07-29T05:07:55;16.28;118.99
64032;DHT22;50278;47.796;11.968;2022-07-29T05:10:25;16.47;118.99
64032;DHT22;50278;47.796;11.968;2022-07-29T05:12:53;16.71;118.99
64032;DHT22;50278;47.796;11.968;2022-07-29T05:15:24;16.58;118.99
64032;DHT22;50278;47.796;11.968;2022-07-29T05:17:50;16.55;118.99
64032;DHT22;50278;47.796;11.968;2022-07-29T05:20:15;16.96;118.99
64032;DHT22;50278;47.796;11.968;2022-07-29T05:22:40;17.28;118.99
64032;DHT22;50278;47.796;11.968;2022-07-29T05:25:06;17.33;118.99
64032;DHT22;50278;47.796;11.968;2022-07-29T05:27:35;17.52;118.99
64032;DHT22;50278;47.796;11.968;2022-07-29T05:30:00;17.30;118.99
64032;DHT22;50278;47.796;11.968;2022-07-29T05:32:28;17.43;118.99
64032;DHT22;50278;47.796;11.968;2022-07-29T05:34:54;17.52;118.99
64032;DHT22;50278;47.796;11.968;2022-07-29T05:37:19;17.96;118.99
64032;DHT22;50278;47.796;11.968;2022-07-29T05:39:45;17.88;118.99
64032;DHT22;50278;47.796;11.968;2022-07-29T05:42:14;18.11;118.99
64032;DHT22;50278;47.796;11.968;2022-07-29T05:44:40;18.28;118.99
64032;DHT22;50278;47.796;11.968;2022-07-29T05:47:05;18.49;118.99
64032;DHT22;50278;47.796;11.968;2022-07-29T05:49:32;18.76;118.99
64032;DHT22;50278;47.796;11.968;2022-07-29T05:51:57;18.79;118.99
64032;DHT22;50278;47.796;11.968;2022-07-29T05:54:23;19.09;118.99
64032;DHT22;50278;47.796;11.968;2022-07-29T05:56:49;18.94;118.99
64032;DHT22;50278;47.796;11.968;2022-07-29T05:59:14;19.28;118.99
64032;DHT22;50278;47.796;11.968;2022-07-29T06:01:40;19.54;118.99
64032;DHT22;50278;47.796;11.968;2022-07-29T06:04:06;19.45;118.99
64032;DHT22;50278;47.796;11.968;2022-07-29T06:06:33;19.46;118.99
64032;DHT22;50278;47.796;11.968;2022-07-29T06:08:59;19.31;118.99
64032;DHT22;50278;47.796;11.968;2022-07-29T06:11:25;19.48;118.99
64032;DHT22;50278;47.796;11.968;2022-07-29T06:13:50;19.38;118.99
64032;DHT22;50278;47.796;11.968;2022-07-29T06:16:16;19.40;118.99
64032;DHT22;50278;47.796;11.968;2022-07-29T06:18:42;19.15;118.99
64032;DHT22;50278;47.796;11.968;2022-07-29T06:21:08;19.02;118.99
64032;DHT22;50278;47.796;11.968;2022-07-29T06:23:36;18.99;118.99
64032;DHT22;50278;47.796;11.968;2022-07-29T06:26:01;18.87;118.99
64032;DHT22;50278;47.796;11.968;2022-07-29T06:28:27;18.99;118.99
64032;DHT22;50278;47.796;11.968;2022-07-29T06:30:53;19.03;118.99
64032;DHT22;50278;47.796;11.968;2022-07-29T06:33:19;18.94;118.99
64032;DHT22;50278;47.796;11.968;2022-07-29T06:35:44;19.06;118.99
64032;DHT22;50278;47.796;11.968;2022-07-29T06:38:13;19.06;118.99
64032;DHT22;50278;47.796;11.968;2022-07-29T06:40:45;19.14;118.99
64032;DHT22;50278;47.796;11.968;2022-07-29T06:43:36;19.13;118.99
64032;DHT22;50278;47.796;11.968;2022-07-29T06:46:07;19.23;118.99
64032;DHT22;50278;47.796;11.968;2022-07-29T06:48:33;19.42;118.99
64032;DHT22;50278;47.796;11.968;2022-07-29T06:50:59;19.39;118.99
64032;DHT22;50278;47.796;11.968;2022-07-29T06:53:26;19.45;118.99
64032;DHT22;50278;47.796;11.968;2022-07-29T06:55:52;19.55;118.99
64032;DHT22;50278;47.796;11.968;2022-07-29T06:58:17;19.68;118.99
64032;DHT22;50278;47.796;11.968;2022-07-29T07:00:54;19.76;118.99
64032;DHT22;50278;47.796;11.968;2022-07-29T07:03:20;19.82;118.99
64032;DHT22;50278;47.796;11.968;2022-07-29T07:05:45;20.00;118.99
64032;DHT22;50278;47.796;11.968;2022-07-29T07:08:12;20.03;118.99
64032;DHT22;50278;47.796;11.968;2022-07-29T07:10:41;20.06;118.99
64032;DHT22;50278;47.796;11.968;2022-07-29T07:13:09;20.21;118.99
64032;DHT22;50278;47.796;11.968;2022-07-29T07:15:36;20.30;118.99
64032;DHT22;50278;47.796;11.968;2022-07-29T07:18:03;20.43;118.99
64032;DHT22;50278;47.796;11.968;2022-07-29T07:20:29;20.59;118.99
64032;DHT22;50278;47.796;11.968;2022-07-29T07:22:54;20.60;118.99
64032;DHT22;50278;47.796;11.968;2022-07-29T07:25:20;20.57;118.99
64032;DHT22;50278;47.796;11.968;2022-07-29T07:27:46;20.63;118.99
64032;DHT22;50278;47.796;11.968;2022-07-29T07:30:11;20.74;118.99
64032;DHT22;50278;47.796;11.968;2022-07-29T07:32:38;20.88;118.99
64032;DHT22;50278;47.796;11.968;2022-07-29T07:35:05;20.87;118.99
64032;DHT22;50278;47.796;11.968;2022-07-29T07:37:31;21.02;118.99
64032;DHT22;50278;47.796;11.968;2022-07-29T07:39:56;21.11;118.99
64032;DHT22;50278;47.796;11.968;2022-07-29T07:42:23;21.18;118.99
64032;DHT22;50278;47.796;11.968;2022-07-29T07:44:49;21.33;118.99
64032;DHT22;50278;47.796;11.968;2022-07-29T07:47:15;21.45;118.99
64032;DHT22;50278;47.796;11.968;2022-07-29T07:49:46;21.49;118.99
64032;DHT22;50278;47.796;11.968;2022-07-29T07:52:13;21.57;118.99
64032;DHT22;50278;47.796;11.968;2022-07-29T07:54:41;21.66;118.99
64032;DHT22;50278;47.796;11.968;2022-07-29T07:57:12;21.72;118.99
64032;DHT22;50278;47.796;11.968;2022-07-29T07:59:39;21.94;118.99
64032;DHT22;50278;47.796;11.968;2022-07-29T08:02:05;21.99;118.99
64032;DHT22;50278;47.796;11.968;2022-07-29T08:04:31;22.22;118.99
64032;DHT22;50278;47.796;11.968;2022-07-29T08:06:58;22.27;118.99
64032;DHT22;50278;47.796;11.968;2022-07-29T08:09:28;22.52;118.99
64032;DHT22;50278;47.796;11.968;2022-07-29T08:11:54;22.63;118.99
64032;DHT22;50278;47.796;11.968;2022-07-29T08:14:20;22.75;118.99
64032;DHT22;50278;47.796;11.968;2022-07-29T08:16:49;22.99;118.99
64032;DHT22;50278;47.796;11.968;2022-07-29T08:19:14;23.01;118.99
64032;DHT22;50278;47.796;11.968;2022-07-29T08:22:06;23.22;118.99
64032;DHT22;50278;47.796;11.968;2022-07-29T08:24:34;23.05;118.99
64032;DHT22;50278;47.796;11.968;2022-07-29T08:27:13;22.96;118.99
64032;DHT22;50278;47.796;11.968;2022-07-29T08:29:41;23.20;118.99
64032;DHT22;50278;47.796;11.968;2022-07-29T08:32:16;23.31;118.99
64032;DHT22;50278;47.796;11.968;2022-07-29T08:35:19;23.47;118.99
64032;DHT22;50278;47.796;11.968;2022-07-29T08:37:52;23.51;118.99
64032;DHT22;50278;47.796;11.968;2022-07-29T08:40:19;23.49;118.99
64032;DHT22;50278;47.796;11.968;2022-07-29T08:42:45;23.77;118.99
64032;DHT22;50278;47.796;11.968;2022-07-29T08:45:11;23.84;118.99
64032;DHT22;50278;47.796;11.968;2022-07-29T08:47:38;23.80;118.99
64032;DHT22;50278;47.796;11.968;2022-07-29T08:50:08;24.01;118.99
64032;DHT22;50278;47.796;11.968;2022-07-29T08:52:40;23.99;118.99
64032;DHT22;50278;47.796;11.968;2022-07-29T08:55:07;24.29;118.99
64032;DHT22;50278;47.796;11.968;2022-07-29T08:57:33;24.60;118.99
64032;DHT22;50278;47.796;11.968;2022-07-29T09:00:00;24.42;118.99
64032;DHT22;50278;47.796;11.968;2022-07-29T09:02:34;24.47;118.99
64032;DHT22;50278;47.796;11.968;2022-07-29T09:05:04;24.76;118.99
64032;DHT22;50278;47.796;11.968;2022-07-29T09:07:30;25.24;118.99
64032;DHT22;50278;47.796;11.968;2022-07-29T09:09:59;25.21;118.99
64032;DHT22;50278;47.796;11.968;2022-07-29T09:12:24;25.31;118.99
64032;DHT22;50278;47.796;11.968;2022-07-29T09:14:51;25.42;118.99
64032;DHT22;50278;47.796;11.968;2022-07-29T09:17:16;25.59;118.99
64032;DHT22;50278;47.796;11.968;2022-07-29T09:19:43;25.61;118.99
64032;DHT22;50278;47.796;11.968;2022-07-29T09:22:09;25.82;118.99
64032;DHT22;50278;47.796;11.968;2022-07-29T09:24:41;25.88;118.99
64032;DHT22;50278;47.796;11.968;2022-07-29T09:27:21;26.06;118.99
64032;DHT22;50278;47.796;11.968;2022-07-29T09:30:04;25.81;118.99
64032;DHT22;50278;47.796;11.968;2022-07-29T09:32:31;26.11;118.99
64032;DHT22;50278;47.796;11.968;2022-07-29T09:35:17;26.08;118.99
64032;DHT22;50278;47.796;11.968;2022-07-29T09:37:43;25.84;118.99
64032;DHT22;50278;47.796;11.968;2022-07-29T09:40:18;26.09;118.99
64032;DHT22;50278;47.796;11.968;2022-07-29T09:42:45;25.98;118.99
64032;DHT22;50278;47.796;11.968;2022-07-29T09:45:11;26.23;118.99
64032;DHT22;50278;47.796;11.968;2022-07-29T09:47:45;26.32;118.99
64032;DHT22;50278;47.796;11.968;2022-07-29T09:50:17;26.63;118.99
64032;DHT22;50278;47.796;11.968;2022-07-29T09:52:51;26.64;118.99
64032;DHT22;50278;47.796;11.968;2022-07-29T09:55:17;26.39;118.99
64032;DHT22;50278;47.796;11.968;2022-07-29T09:57:43;26.63;118.99
64032;DHT22;50278;47.796;11.968;2022-07-29T10:00:11;26.72;118.99
64032;DHT22;50278;47.796;11.968;2022-07-29T10:02:39;26.48;118.99
64032;DHT22;50278;47.796;11.968;2022-07-29T10:05:22;26.99;118.99
64032;DHT22;50278;47.796;11.968;2022-07-29T10:07:52;26.89;118.99
64032;DHT22;50278;47.796;11.968;2022-07-29T10:10:24;26.71;118.99
64032;DHT22;50278;47.796;11.968;2022-07-29T10:12:56;26.94;118.99
64032;DHT22;50278;47.796;11.968;2022-07-29T10:15:25;26.92;118.99
64032;DHT22;50278;47.796;11.968;2022-07-29T10:17:53;27.07;118.99
64032;DHT22;50278;47.796;11.968;2022-07-29T10:20:20;27.15;118.99
64032;DHT22;50278;47.796;11.968;2022-07-29T10:22:47;27.63;118.99
64032;DHT22;50278;47.796;11.968;2022-07-29T10:25:15;27.65;118.99
64032;DHT22;50278;47.796;11.968;2022-07-29T10:27:44;27.49;118.99
64032;DHT22;50278;47.796;11.968;2022-07-29T10:30:12;27.98;118.99
64032;DHT22;50278;47.796;11.968;2022-07-29T10:40:51;29.00;118.99
64032;DHT22;50278;47.796;11.968;2022-07-29T10:43:41;29.61;118.99
64032;DHT22;50278;47.796;11.968;2022-07-29T10:46:08;30.05;118.99
64032;DHT22;50278;47.796;11.968;2022-07-29T10:48:34;29.86;118.99
64032;DHT22;50278;47.796;11.968;2022-07-29T10:51:04;30.09;118.99
64032;DHT22;50278;47.796;11.968;2022-07-29T10:53:50;29.44;118.99
64032;DHT22;50278;47.796;11.968;2022-07-29T10:56:42;30.18;118.99
64032;DHT22;50278;47.796;11.968;2022-07-29T11:01:46;30.45;114.51
64032;DHT22;50278;47.796;11.968;2022-07-29T11:04:12;30.86;118.99
64032;DHT22;50278;47.796;11.968;2022-07-29T11:07:06;31.29;109.84
64032;DHT22;50278;47.796;11.968;2022-07-29T11:09:33;31.37;118.99
64032;DHT22;50278;47.796;11.968;2022-07-29T11:11:59;31.04;118.99
64032;DHT22;50278;47.796;11.968;2022-07-29T11:14:56;32.49;91.08
64032;DHT22;50278;47.796;11.968;2022-07-29T11:17:24;32.42;86.04
64032;DHT22;50278;47.796;11.968;2022-07-29T11:19:49;33.48;79.48
64032;DHT22;50278;47.796;11.968;2022-07-29T11:22:35;33.62;72.90
64032;DHT22;50278;47.796;11.968;2022-07-29T11:25:17;34.16;74.47
64032;DHT22;50278;47.796;11.968;2022-07-29T11:27:46;33.66;75.64
64032;DHT22;50278;47.796;11.968;2022-07-29T11:30:12;32.78;59.19
64032;DHT22;50278;47.796;11.968;2022-07-29T11:32:39;32.91;60.18
64032;DHT22;50278;47.796;11.968;2022-07-29T11:35:22;34.91;52.92
64032;DHT22;50278;47.796;11.968;2022-07-29T11:38:27;35.30;43.61
64032;DHT22;50278;47.796;11.968;2022-07-29T11:43:58;33.48;57.66
64032;DHT22;50278;47.796;11.968;2022-07-29T11:46:49;33.50;53.07
64032;DHT22;50278;47.796;11.968;2022-07-29T11:49:31;32.55;57.67
64032;DHT22;50278;47.796;11.968;2022-07-29T11:52:13;33.79;57.23
64032;DHT22;50278;47.796;11.968;2022-07-29T11:54:42;35.35;45.69
64032;DHT22;50278;47.796;11.968;2022-07-29T11:57:08;36.22;48.47
64032;DHT22;50278;47.796;11.968;2022-07-29T11:59:58;37.16;46.54
64032;DHT22;50278;47.796;11.968;2022-07-29T12:05:17;34.91;53.46
64032;DHT22;50278;47.796;11.968;2022-07-29T12:07:49;35.37;51.39
64032;DHT22;50278;47.796;11.968;2022-07-29T12:10:17;33.82;57.08
64032;DHT22;50278;47.796;11.968;2022-07-29T12:12:59;33.09;61.73
64032;DHT22;50278;47.796;11.968;2022-07-29T12:15:41;34.39;56.74
64032;DHT22;50278;47.796;11.968;2022-07-29T12:18:19;35.89;45.31
64032;DHT22;50278;47.796;11.968;2022-07-29T12:20:46;36.56;44.09
64032;DHT22;50278;47.796;11.968;2022-07-29T12:23:15;37.18;41.88
64032;DHT22;50278;47.796;11.968;2022-07-29T12:25:46;36.83;40.09
64032;DHT22;50278;47.796;11.968;2022-07-29T12:28:37;38.93;33.01
64032;DHT22;50278;47.796;11.968;2022-07-29T12:31:13;38.62;34.94
64032;DHT22;50278;47.796;11.968;2022-07-29T12:34:08;39.03;32.95
64032;DHT22;50278;47.796;11.968;2022-07-29T12:36:50;40.30;27.07
64032;DHT22;50278;47.796;11.968;2022-07-29T12:39:16;39.94;27.55
64032;DHT22;50278;47.796;11.968;2022-07-29T12:41:44;40.56;26.66
64032;DHT22;50278;47.796;11.968;2022-07-29T12:44:13;40.62;28.29
64032;DHT22;50278;47.796;11.968;2022-07-29T12:46:38;40.35;28.87
64032;DHT22;50278;47.796;11.968;2022-07-29T12:49:07;39.42;28.80
64032;DHT22;50278;47.796;11.968;2022-07-29T12:51:39;39.92;26.59
64032;DHT22;50278;47.796;11.968;2022-07-29T12:54:09;40.44;26.97
64032;DHT22;50278;47.796;11.968;2022-07-29T12:56:40;38.93;30.97
64032;DHT22;50278;47.796;11.968;2022-07-29T12:59:17;37.03;35.66
64032;DHT22;50278;47.796;11.968;2022-07-29T13:01:44;37.89;33.51
64032;DHT22;50278;47.796;11.968;2022-07-29T13:04:27;38.90;30.00
64032;DHT22;50278;47.796;11.968;2022-07-29T13:07:00;36.99;35.13
64032;DHT22;50278;47.796;11.968;2022-07-29T13:09:40;36.33;36.55
64032;DHT22;50278;47.796;11.968;2022-07-29T13:12:11;34.99;42.93
64032;DHT22;50278;47.796;11.968;2022-07-29T13:19:45;38.07;34.37
64032;DHT22;50278;47.796;11.968;2022-07-29T13:22:12;38.99;31.86
64032;DHT22;50278;47.796;11.968;2022-07-29T13:24:51;38.76;32.85
64032;DHT22;50278;47.796;11.968;2022-07-29T13:27:18;39.25;32.36
64032;DHT22;50278;47.796;11.968;2022-07-29T13:29:45;37.27;34.86
64032;DHT22;50278;47.796;11.968;2022-07-29T13:32:11;35.70;40.34
64032;DHT22;50278;47.796;11.968;2022-07-29T13:34:37;34.93;43.06
64032;DHT22;50278;47.796;11.968;2022-07-29T13:37:03;34.23;48.63
64032;DHT22;50278;47.796;11.968;2022-07-29T13:39:28;33.55;47.35
64032;DHT22;50278;47.796;11.968;2022-07-29T13:41:53;33.80;50.66
64032;DHT22;50278;47.796;11.968;2022-07-29T13:44:19;33.18;51.37
64032;DHT22;50278;47.796;11.968;2022-07-29T13:46:45;32.15;56.86
64032;DHT22;50278;47.796;11.968;2022-07-29T13:49:10;31.80;59.59
64032;DHT22;50278;47.796;11.968;2022-07-29T13:51:37;31.46;61.36
64032;DHT22;50278;47.796;11.968;2022-07-29T13:54:03;31.19;73.40
64032;DHT22;50278;47.796;11.968;2022-07-29T13:56:28;31.12;73.42
64032;DHT22;50278;47.796;11.968;2022-07-29T13:58:54;32.00;61.71
64032;DHT22;50278;47.796;11.968;2022-07-29T14:01:20;31.38;73.42
64032;DHT22;50278;47.796;11.968;2022-07-29T14:03:48;31.92;65.46
64032;DHT22;50278;47.796;11.968;2022-07-29T14:06:13;31.84;62.82
64032;DHT22;50278;47.796;11.968;2022-07-29T14:08:39;32.37;59.36
64032;DHT22;50278;47.796;11.968;2022-07-29T14:11:07;34.55;47.05
64032;DHT22;50278;47.796;11.968;2022-07-29T14:13:33;35.84;41.33
64032;DHT22;50278;47.796;11.968;2022-07-29T14:16:01;37.37;37.17
64032;DHT22;50278;47.796;11.968;2022-07-29T14:18:26;37.92;33.22
64032;DHT22;50278;47.796;11.968;2022-07-29T14:20:52;38.99;30.96
64032;DHT22;50278;47.796;11.968;2022-07-29T14:23:18;37.49;33.31
64032;DHT22;50278;47.796;11.968;2022-07-29T14:25:43;38.38;31.28
64032;DHT22;50278;47.796;11.968;2022-07-29T14:28:09;36.71;34.05
64032;DHT22;50278;47.796;11.968;2022-07-29T14:30:34;38.37;32.31
64032;DHT22;50278;47.796;11.968;2022-07-29T14:33:00;38.20;31.45
64032;DHT22;50278;47.796;11.968;2022-07-29T14:35:25;39.06;27.20
64032;DHT22;50278;47.796;11.968;2022-07-29T14:37:51;38.85;28.44
64032;DHT22;50278;47.796;11.968;2022-07-29T14:40:16;39.86;25.20
64032;DHT22;50278;47.796;11.968;2022-07-29T14:42:42;41.12;24.33
64032;DHT22;50278;47.796;11.968;2022-07-29T14:45:11;38.83;29.26
64032;DHT22;50278;47.796;11.968;2022-07-29T14:47:38;36.02;35.17
64032;DHT22;50278;47.796;11.968;2022-07-29T14:50:04;35.39;37.25
64032;DHT22;50278;47.796;11.968;2022-07-29T14:52:30;34.02;44.38
64032;DHT22;50278;47.796;11.968;2022-07-29T14:54:57;32.66;55.17
64032;DHT22;50278;47.796;11.968;2022-07-29T14:57:22;32.26;56.78
64032;DHT22;50278;47.796;11.968;2022-07-29T14:59:48;31.72;65.04
64032;DHT22;50278;47.796;11.968;2022-07-29T15:02:13;31.74;63.62
64032;DHT22;50278;47.796;11.968;2022-07-29T15:04:39;30.71;69.94
64032;DHT22;50278;47.796;11.968;2022-07-29T15:07:04;29.95;78.31
64032;DHT22;50278;47.796;11.968;2022-07-29T15:09:30;29.60;85.38
64032;DHT22;50278;47.796;11.968;2022-07-29T15:11:55;29.37;85.98
64032;DHT22;50278;47.796;11.968;2022-07-29T15:14:21;28.93;100.73
64032;DHT22;50278;47.796;11.968;2022-07-29T15:16:47;28.53;114.53
64032;DHT22;50278;47.796;11.968;2022-07-29T15:19:12;28.41;115.68
64032;DHT22;50278;47.796;11.968;2022-07-29T15:21:38;28.04;118.99
64032;DHT22;50278;47.796;11.968;2022-07-29T15:24:04;27.89;118.99
64032;DHT22;50278;47.796;11.968;2022-07-29T15:26:29;27.79;118.99
64032;DHT22;50278;47.796;11.968;2022-07-29T15:28:55;27.73;118.99
64032;DHT22;50278;47.796;11.968;2022-07-29T15:31:21;27.37;118.99
64032;DHT22;50278;47.796;11.968;2022-07-29T15:33:47;27.06;118.99
64032;DHT22;50278;47.796;11.968;2022-07-29T15:46:41;26.19;118.99
64032;DHT22;50278;47.796;11.968;2022-07-29T15:49:26;26.03;118.99
64032;DHT22;50278;47.796;11.968;2022-07-29T15:51:59;25.93;118.99
64032;DHT22;50278;47.796;11.968;2022-07-29T15:54:25;25.74;118.99
64032;DHT22;50278;47.796;11.968;2022-07-29T15:56:51;25.52;118.99
64032;DHT22;50278;47.796;11.968;2022-07-29T15:59:17;25.33;118.99